Time,TemperatureF,DewpointF,PressureIn,WindDirection,WindDirectionDegrees,WindSpeedMPH,WindSpeedGustMPH,Humidity,HourlyPrecipIn,Conditions,Clouds,dailyrainin,SolarRadiationWatts/m^2,SoftwareType,DateUTC
2013-02-16 00:11:00,43.8,33.0,29.93,NW,326,0.0,7.0,67,0.00,,,0.00,0,weatherlink.com 1.10,2013-02-16 05:11:00,
2013-02-16 00:26:00,43.7,34.0,29.94,NW,317,3.0,8.0,69,0.00,,,0.00,0,weatherlink.com 1.10,2013-02-16 05:26:00,
2013-02-16 00:41:00,43.2,34.0,29.94,WNW,289,2.0,7.0,71,0.00,,,0.00,0,weatherlink.com 1.10,2013-02-16 05:41:00,
2013-02-16 00:56:00,42.4,34.0,29.94,WNW,286,3.0,8.0,73,0.00,,,0.00,0,weatherlink.com 1.10,2013-02-16 05:56:00,
2013-02-16 01:11:00,42.3,35.0,29.95,WNW,284,3.0,9.0,74,0.00,,,0.00,0,weatherlink.com 1.10,2013-02-16 06:11:00,
2013-02-16 01:26:00,41.8,35.0,29.95,West,277,3.0,9.0,76,0.00,,,0.00,0,weatherlink.com 1.10,2013-02-16 06:26:00,
2013-02-16 01:41:00,41.2,35.0,29.94,WNW,290,0.0,10.0,78,0.00,,,0.00,0,weatherlink.com 1.10,2013-02-16 06:41:00,
2013-02-16 01:56:00,40.7,35.0,29.95,NW,309,3.0,11.0,80,0.00,,,0.00,0,weatherlink.com 1.10,2013-02-16 06:56:00,
2013-02-16 02:11:00,40.2,35.0,29.93,North,355,6.0,6.0,81,0.00,,,0.00,0,weatherlink.com 1.10,2013-02-16 07:11:00,
2013-02-16 02:26:00,39.8,35.0,29.94,WNW,298,0.0,7.0,83,0.00,,,0.00,0,weatherlink.com 1.10,2013-02-16 07:26:00,
2013-02-16 02:41:00,39.6,35.0,29.93,NNW,348,1.0,6.0,84,0.00,,,0.00,0,weatherlink.com 1.10,2013-02-16 07:41:00,
2013-02-16 02:56:00,39.3,35.0,29.94,West,275,3.0,10.0,85,0.00,,,0.00,0,weatherlink.com 1.10,2013-02-16 07:56:00,
2013-02-16 03:11:00,39.0,35.0,29.93,WNW,282,1.0,6.0,86,0.00,,,0.00,0,weatherlink.com 1.10,2013-02-16 08:11:00,
2013-02-16 03:26:00,38.7,35.0,29.93,NNW,329,0.0,5.0,87,0.00,,,0.00,0,weatherlink.com 1.10,2013-02-16 08:26:00,
2013-02-16 03:41:00,38.6,35.0,29.92,North,360,0.0,6.0,87,0.00,,,0.00,0,weatherlink.com 1.10,2013-02-16 08:41:00,
2013-02-16 03:56:00,38.4,35.0,29.91,North,5,0.0,5.0,87,0.00,,,0.00,0,weatherlink.com 1.10,2013-02-16 08:56:00,
2013-02-16 04:12:00,38.2,34.0,29.92,NE,40,0.0,6.0,86,0.00,,,0.00,0,weatherlink.com 1.10,2013-02-16 09:12:00,
2013-02-16 04:26:00,38.0,35.0,29.92,NW,315,2.0,3.0,87,0.00,,,0.00,0,weatherlink.com 1.10,2013-02-16 09:26:00,
2013-02-16 04:42:00,37.9,35.0,29.93,WNW,298,0.0,6.0,88,0.00,,,0.00,0,weatherlink.com 1.10,2013-02-16 09:42:00,
2013-02-16 04:56:00,37.8,35.0,29.93,NNW,327,0.0,5.0,89,0.00,,,0.00,0,weatherlink.com 1.10,2013-02-16 09:56:00,
2013-02-16 05:11:00,37.5,35.0,29.92,North,351,0.0,5.0,89,0.00,,,0.00,0,weatherlink.com 1.10,2013-02-16 10:11:00,
2013-02-16 05:26:00,37.4,35.0,29.93,WNW,300,4.0,7.0,90,0.00,,,0.00,0,weatherlink.com 1.10,2013-02-16 10:26:00,
2013-02-16 05:42:00,37.4,35.0,29.92,North,5,0.0,4.0,90,0.00,,,0.00,0,weatherlink.com 1.10,2013-02-16 10:42:00,
2013-02-16 05:56:00,37.3,35.0,29.92,NNW,340,0.0,6.0,90,0.00,,,0.00,0,weatherlink.com 1.10,2013-02-16 10:56:00,
2013-02-16 06:11:00,37.3,35.0,29.94,WNW,301,0.0,5.0,90,0.00,,,0.00,0,weatherlink.com 1.10,2013-02-16 11:11:00,
2013-02-16 06:27:00,37.1,35.0,29.92,NNW,327,1.0,3.0,90,0.00,,,0.00,0,weatherlink.com 1.10,2013-02-16 11:27:00,
2013-02-16 06:42:00,37.1,35.0,29.93,NW,321,3.0,4.0,90,0.00,,,0.00,0,weatherlink.com 1.10,2013-02-16 11:42:00,
2013-02-16 06:57:00,37.1,35.0,29.93,WNW,285,2.0,3.0,90,0.00,,,0.00,5,weatherlink.com 1.10,2013-02-16 11:57:00,
2013-02-16 07:12:00,37.0,35.0,29.93,West,267,2.0,3.0,91,0.00,,,0.00,9,weatherlink.com 1.10,2013-02-16 12:12:00,
2013-02-16 07:27:00,37.1,35.0,29.93,NW,321,0.0,6.0,91,0.00,,,0.00,11,weatherlink.com 1.10,2013-02-16 12:27:00,
2013-02-16 07:42:00,37.1,35.0,29.93,NNW,339,0.0,4.0,90,0.00,,,0.00,19,weatherlink.com 1.10,2013-02-16 12:42:00,
2013-02-16 07:57:00,37.3,35.0,29.93,North,360,0.0,3.0,90,0.00,,,0.00,37,weatherlink.com 1.10,2013-02-16 12:57:00,
2013-02-16 08:12:00,37.4,35.0,29.93,NNW,328,0.0,6.0,89,0.00,,,0.00,40,weatherlink.com 1.10,2013-02-16 13:12:00,
2013-02-16 08:27:00,37.3,34.0,29.93,North,355,3.0,7.0,88,0.00,,,0.00,49,weatherlink.com 1.10,2013-02-16 13:27:00,
2013-02-16 08:42:00,37.2,34.0,29.93,North,5,0.0,6.0,88,0.00,,,0.00,63,weatherlink.com 1.10,2013-02-16 13:42:00,
2013-02-16 08:57:00,37.3,34.0,29.92,North,355,0.0,6.0,87,0.00,,,0.00,137,weatherlink.com 1.10,2013-02-16 13:57:00,
2013-02-16 09:12:00,37.6,34.0,29.92,North,5,3.0,6.0,85,0.00,,,0.00,98,weatherlink.com 1.10,2013-02-16 14:12:00,
2013-02-16 09:27:00,37.3,34.0,29.92,North,5,0.0,10.0,86,0.00,,,0.00,97,weatherlink.com 1.10,2013-02-16 14:27:00,
2013-02-16 09:42:00,37.2,33.0,29.93,North,5,1.0,7.0,86,0.00,,,0.00,121,weatherlink.com 1.10,2013-02-16 14:42:00,
2013-02-16 09:57:00,37.1,33.0,29.93,North,9,2.0,8.0,85,0.00,,,0.00,62,weatherlink.com 1.10,2013-02-16 14:57:00,
2013-02-16 10:12:00,36.9,33.0,29.93,North,360,4.0,7.0,84,0.00,,,0.00,113,weatherlink.com 1.10,2013-02-16 15:12:00,
2013-02-16 10:27:00,37.0,33.0,29.93,North,360,0.0,5.0,84,0.00,,,0.00,134,weatherlink.com 1.10,2013-02-16 15:27:00,
2013-02-16 10:42:00,37.0,33.0,29.92,North,9,0.0,6.0,86,0.00,,,0.00,146,weatherlink.com 1.10,2013-02-16 15:42:00,
2013-02-16 10:57:00,36.7,34.0,29.92,NW,309,0.0,5.0,89,0.00,,,0.00,105,weatherlink.com 1.10,2013-02-16 15:57:00,
2013-02-16 11:12:00,36.1,34.0,29.92,NNE,32,1.0,4.0,90,0.00,,,0.00,105,weatherlink.com 1.10,2013-02-16 16:12:00,
2013-02-16 11:27:00,35.4,33.0,29.91,North,10,1.0,6.0,91,0.00,,,0.00,130,weatherlink.com 1.10,2013-02-16 16:27:00,
2013-02-16 11:42:00,35.2,33.0,29.91,NNE,13,4.0,5.0,92,0.00,,,0.00,156,weatherlink.com 1.10,2013-02-16 16:42:00,
2013-02-16 11:57:00,35.8,34.0,29.90,North,355,0.0,3.0,93,0.00,,,0.00,225,weatherlink.com 1.10,2013-02-16 16:57:00,
2013-02-16 12:12:00,36.2,34.0,29.89,North,5,0.0,5.0,92,0.00,,,0.00,116,weatherlink.com 1.10,2013-02-16 17:12:00,
2013-02-16 12:27:00,36.1,34.0,29.88,North,351,0.0,4.0,92,0.00,,,0.00,221,weatherlink.com 1.10,2013-02-16 17:27:00,
2013-02-16 12:42:00,36.7,34.0,29.87,NNE,22,0.0,5.0,91,0.00,,,0.00,162,weatherlink.com 1.10,2013-02-16 17:42:00,
2013-02-16 12:57:00,36.7,34.0,29.87,NNE,17,4.0,5.0,91,0.00,,,0.00,188,weatherlink.com 1.10,2013-02-16 17:57:00,
2013-02-16 13:13:00,36.8,34.0,29.87,NNE,17,2.0,4.0,90,0.00,,,0.00,102,weatherlink.com 1.10,2013-02-16 18:13:00,
2013-02-16 13:28:00,36.9,35.0,29.86,North,360,1.0,2.0,91,0.00,,,0.00,120,weatherlink.com 1.10,2013-02-16 18:28:00,
2013-02-16 13:42:00,37.3,35.0,29.86,ENE,67,0.0,3.0,90,0.00,,,0.00,193,weatherlink.com 1.10,2013-02-16 18:42:00,
2013-02-16 13:57:00,38.2,35.0,29.85,NNW,341,0.0,3.0,87,0.00,,,0.00,213,weatherlink.com 1.10,2013-02-16 18:57:00,
2013-02-16 14:12:00,38.6,34.0,29.84,ESE,111,0.0,3.0,83,0.00,,,0.00,151,weatherlink.com 1.10,2013-02-16 19:12:00,
2013-02-16 14:28:00,38.8,33.0,29.84,North,360,0.0,3.0,80,0.00,,,0.00,137,weatherlink.com 1.10,2013-02-16 19:28:00,
2013-02-16 14:42:00,39.2,33.0,29.84,NNW,343,1.0,4.0,77,0.00,,,0.00,141,weatherlink.com 1.10,2013-02-16 19:42:00,
2013-02-16 14:57:00,39.0,31.0,29.84,North,360,0.0,7.0,74,0.00,,,0.00,121,weatherlink.com 1.10,2013-02-16 19:57:00,
2013-02-16 15:12:00,39.1,31.0,29.84,North,10,4.0,5.0,74,0.00,,,0.00,104,weatherlink.com 1.10,2013-02-16 20:12:00,
2013-02-16 15:28:00,39.2,32.0,29.83,North,11,0.0,1.0,74,0.00,,,0.00,67,weatherlink.com 1.10,2013-02-16 20:28:00,
2013-02-16 15:43:00,39.1,31.0,29.82,NNW,338,0.0,3.0,72,0.00,,,0.00,46,weatherlink.com 1.10,2013-02-16 20:43:00,
2013-02-16 15:58:00,38.9,29.0,29.82,NNW,346,3.0,6.0,68,0.00,,,0.00,53,weatherlink.com 1.10,2013-02-16 20:58:00,
2013-02-16 16:13:00,38.7,30.0,29.82,NW,326,0.0,7.0,71,0.00,,,0.00,70,weatherlink.com 1.10,2013-02-16 21:13:00,
2013-02-16 16:28:00,38.3,29.0,29.82,North,360,1.0,5.0,69,0.00,,,0.00,56,weatherlink.com 1.10,2013-02-16 21:28:00,
2013-02-16 16:43:00,38.0,29.0,29.82,NW,317,0.0,8.0,71,0.00,,,0.00,32,weatherlink.com 1.10,2013-02-16 21:43:00,
2013-02-16 16:58:00,37.7,29.0,29.82,North,5,3.0,13.0,70,0.00,,,0.00,12,weatherlink.com 1.10,2013-02-16 21:58:00,
2013-02-16 17:13:00,37.2,29.0,29.81,North,349,0.0,8.0,73,0.00,,,0.00,5,weatherlink.com 1.10,2013-02-16 22:13:00,
2013-02-16 17:28:00,37.2,26.0,29.80,North,360,1.0,12.0,65,0.00,,,0.00,0,weatherlink.com 1.10,2013-02-16 22:28:00,
2013-02-16 17:43:00,37.3,25.0,29.80,North,5,2.0,8.0,61,0.00,,,0.00,0,weatherlink.com 1.10,2013-02-16 22:43:00,
2013-02-16 17:58:00,37.1,25.0,29.80,North,350,1.0,10.0,62,0.00,,,0.00,0,weatherlink.com 1.10,2013-02-16 22:58:00,
2013-02-16 18:13:00,36.9,26.0,29.80,WNW,286,3.0,7.0,64,0.00,,,0.00,0,weatherlink.com 1.10,2013-02-16 23:13:00,
2013-02-16 18:28:00,36.6,25.0,29.80,NE,36,5.0,10.0,64,0.00,,,0.00,0,weatherlink.com 1.10,2013-02-16 23:28:00,
2013-02-16 18:43:00,36.2,25.0,29.81,WNW,298,2.0,9.0,63,0.00,,,0.00,0,weatherlink.com 1.10,2013-02-16 23:43:00,
2013-02-16 18:58:00,35.9,24.0,29.80,WNW,290,5.0,10.0,62,0.00,,,0.00,0,weatherlink.com 1.10,2013-02-16 23:58:00,
2013-02-16 19:13:00,35.7,23.0,29.81,NNW,342,0.0,12.0,61,0.00,,,0.00,0,weatherlink.com 1.10,2013-02-17 00:13:00,
2013-02-16 19:28:00,35.5,23.0,29.80,WNW,294,5.0,9.0,60,0.00,,,0.00,0,weatherlink.com 1.10,2013-02-17 00:28:00,
2013-02-16 19:43:00,35.3,23.0,29.79,North,351,1.0,7.0,61,0.00,,,0.00,0,weatherlink.com 1.10,2013-02-17 00:43:00,
2013-02-16 19:58:00,35.2,23.0,29.80,North,350,1.0,6.0,62,0.00,,,0.00,0,weatherlink.com 1.10,2013-02-17 00:58:00,
2013-02-16 20:13:00,34.9,23.0,29.80,North,350,0.0,10.0,62,0.00,,,0.00,0,weatherlink.com 1.10,2013-02-17 01:13:00,
2013-02-16 20:28:00,34.8,22.0,29.80,West,269,2.0,8.0,60,0.00,,,0.00,0,weatherlink.com 1.10,2013-02-17 01:28:00,
2013-02-16 20:43:00,34.6,21.0,29.79,NNW,344,0.0,9.0,58,0.00,,,0.00,0,weatherlink.com 1.10,2013-02-17 01:43:00,
2013-02-16 20:58:00,34.4,22.0,29.78,NNE,22,4.0,11.0,60,0.00,,,0.00,0,weatherlink.com 1.10,2013-02-17 01:58:00,
2013-02-16 21:15:00,33.7,23.0,29.80,NNW,347,1.0,8.0,65,0.00,,,0.00,0,weatherlink.com 1.10,2013-02-17 02:15:00,
2013-02-16 21:28:00,33.0,25.0,29.79,North,5,3.0,9.0,72,0.00,,,0.00,0,weatherlink.com 1.10,2013-02-17 02:28:00,
2013-02-16 21:43:00,32.8,25.0,29.77,West,270,0.0,5.0,73,0.00,,,0.00,0,weatherlink.com 1.10,2013-02-17 02:43:00,
2013-02-16 21:58:00,33.0,24.0,29.77,NW,323,5.0,8.0,69,0.00,,,0.00,0,weatherlink.com 1.10,2013-02-17 02:58:00,
2013-02-16 22:13:00,33.4,24.0,29.76,NNW,341,2.0,13.0,68,0.00,,,0.00,0,weatherlink.com 1.10,2013-02-17 03:13:00,
2013-02-16 22:29:00,33.4,23.0,29.75,NNE,16,1.0,9.0,67,0.00,,,0.00,0,weatherlink.com 1.10,2013-02-17 03:29:00,
2013-02-16 22:43:00,33.3,23.0,29.74,North,349,7.0,12.0,66,0.00,,,0.00,0,weatherlink.com 1.10,2013-02-17 03:43:00,
2013-02-16 22:58:00,33.2,23.0,29.73,NNW,331,1.0,10.0,66,0.00,,,0.00,0,weatherlink.com 1.10,2013-02-17 03:58:00,
2013-02-16 23:13:00,32.7,23.0,29.73,NNW,347,1.0,11.0,68,0.00,,,0.00,0,weatherlink.com 1.10,2013-02-17 04:13:00,
2013-02-16 23:29:00,32.5,23.0,29.73,NW,305,4.0,9.0,69,0.00,,,0.00,0,weatherlink.com 1.10,2013-02-17 04:29:00,
2013-02-16 23:44:00,32.3,22.0,29.72,NNW,327,1.0,14.0,65,0.00,,,0.00,0,weatherlink.com 1.10,2013-02-17 04:44:00,
2013-02-16 23:59:00,32.1,21.0,29.72,NNW,338,0.0,10.0,63,0.00,,,0.00,0,weatherlink.com 1.10,2013-02-17 04:59:00,